sensor_id;sensor_type;location;lat;lon;timestamp;P1;durP1;ratioP1;P2;durP2;ratioP2
41039;SDS011;48586;50.122;18.972;2022-08-21T00:00:24;28.25;;;15.80;;
41039;SDS011;48586;50.122;18.972;2022-08-21T00:03:29;23.35;;;15.27;;
41039;SDS011;48586;50.122;18.972;2022-08-21T00:06:31;27.33;;;15.65;;
41039;SDS011;48586;50.122;18.972;2022-08-21T00:09:34;25.27;;;16.05;;
41039;SDS011;48586;50.122;18.972;2022-08-21T00:12:37;29.90;;;16.27;;
41039;SDS011;48586;50.122;18.972;2022-08-21T00:15:39;29.52;;;17.00;;
41039;SDS011;48586;50.122;18.972;2022-08-21T00:18:43;29.60;;;16.65;;
41039;SDS011;48586;50.122;18.972;2022-08-21T00:21:45;28.08;;;16.88;;
41039;SDS011;48586;50.122;18.972;2022-08-21T00:24:48;24.02;;;16.40;;
41039;SDS011;48586;50.122;18.972;2022-08-21T00:27:51;24.90;;;15.68;;
41039;SDS011;48586;50.122;18.972;2022-08-21T00:30:53;28.98;;;16.17;;
41039;SDS011;48586;50.122;18.972;2022-08-21T00:33:58;35.10;;;17.67;;
41039;SDS011;48586;50.122;18.972;2022-08-21T00:37:00;27.77;;;16.85;;
41039;SDS011;48586;50.122;18.972;2022-08-21T00:40:03;24.85;;;15.93;;
41039;SDS011;48586;50.122;18.972;2022-08-21T00:43:07;23.30;;;16.33;;
41039;SDS011;48586;50.122;18.972;2022-08-21T00:46:11;29.73;;;16.52;;
41039;SDS011;48586;50.122;18.972;2022-08-21T00:49:15;24.25;;;16.60;;
41039;SDS011;48586;50.122;18.972;2022-08-21T00:52:19;26.30;;;17.67;;
41039;SDS011;48586;50.122;18.972;2022-08-21T00:55:25;28.20;;;19.17;;
41039;SDS011;48586;50.122;18.972;2022-08-21T00:58:30;31.43;;;19.03;;
41039;SDS011;48586;50.122;18.972;2022-08-21T01:01:36;30.58;;;18.27;;
41039;SDS011;48586;50.122;18.972;2022-08-21T01:04:40;26.08;;;17.90;;
41039;SDS011;48586;50.122;18.972;2022-08-21T01:07:42;31.47;;;18.90;;
41039;SDS011;48586;50.122;18.972;2022-08-21T01:10:45;27.77;;;17.50;;
41039;SDS011;48586;50.122;18.972;2022-08-21T01:13:48;31.58;;;18.55;;
41039;SDS011;48586;50.122;18.972;2022-08-21T01:16:52;28.63;;;18.13;;
41039;SDS011;48586;50.122;18.972;2022-08-21T01:19:58;27.10;;;18.77;;
41039;SDS011;48586;50.122;18.972;2022-08-21T01:23:02;29.98;;;18.55;;
41039;SDS011;48586;50.122;18.972;2022-08-21T01:26:06;34.83;;;19.20;;
41039;SDS011;48586;50.122;18.972;2022-08-21T01:29:14;30.50;;;18.65;;
41039;SDS011;48586;50.122;18.972;2022-08-21T01:32:21;33.33;;;18.02;;
41039;SDS011;48586;50.122;18.972;2022-08-21T01:35:24;28.83;;;18.15;;
41039;SDS011;48586;50.122;18.972;2022-08-21T01:38:28;32.05;;;19.02;;
41039;SDS011;48586;50.122;18.972;2022-08-21T01:41:30;28.95;;;18.65;;
41039;SDS011;48586;50.122;18.972;2022-08-21T01:44:32;28.90;;;18.77;;
41039;SDS011;48586;50.122;18.972;2022-08-21T01:47:35;31.75;;;18.35;;
41039;SDS011;48586;50.122;18.972;2022-08-21T01:50:38;31.15;;;18.80;;
41039;SDS011;48586;50.122;18.972;2022-08-21T01:53:41;27.98;;;17.67;;
41039;SDS011;48586;50.122;18.972;2022-08-21T01:56:45;29.10;;;18.63;;
41039;SDS011;48586;50.122;18.972;2022-08-21T01:59:52;25.10;;;16.38;;
41039;SDS011;48586;50.122;18.972;2022-08-21T02:02:54;24.50;;;16.42;;
41039;SDS011;48586;50.122;18.972;2022-08-21T02:05:57;24.95;;;16.52;;
41039;SDS011;48586;50.122;18.972;2022-08-21T02:09:01;22.67;;;15.07;;
41039;SDS011;48586;50.122;18.972;2022-08-21T02:12:03;25.75;;;15.50;;
41039;SDS011;48586;50.122;18.972;2022-08-21T02:15:06;21.80;;;14.90;;
41039;SDS011;48586;50.122;18.972;2022-08-21T02:18:09;21.80;;;15.25;;
41039;SDS011;48586;50.122;18.972;2022-08-21T02:21:12;25.33;;;14.90;;
41039;SDS011;48586;50.122;18.972;2022-08-21T02:24:15;23.30;;;15.15;;
41039;SDS011;48586;50.122;18.972;2022-08-21T02:27:18;26.23;;;16.63;;
41039;SDS011;48586;50.122;18.972;2022-08-21T02:30:21;27.33;;;16.08;;
41039;SDS011;48586;50.122;18.972;2022-08-21T02:33:25;29.08;;;16.27;;
41039;SDS011;48586;50.122;18.972;2022-08-21T02:36:27;31.30;;;15.95;;
41039;SDS011;48586;50.122;18.972;2022-08-21T02:39:31;27.77;;;17.73;;
41039;SDS011;48586;50.122;18.972;2022-08-21T02:42:33;27.40;;;17.00;;
41039;SDS011;48586;50.122;18.972;2022-08-21T02:45:35;25.92;;;16.67;;
41039;SDS011;48586;50.122;18.972;2022-08-21T02:48:38;25.63;;;17.88;;
41039;SDS011;48586;50.122;18.972;2022-08-21T02:51:41;31.75;;;18.13;;
41039;SDS011;48586;50.122;18.972;2022-08-21T02:54:44;30.45;;;18.45;;
41039;SDS011;48586;50.122;18.972;2022-08-21T02:57:46;31.80;;;18.30;;
41039;SDS011;48586;50.122;18.972;2022-08-21T03:03:53;28.92;;;18.30;;
41039;SDS011;48586;50.122;18.972;2022-08-21T03:06:55;28.75;;;17.92;;
41039;SDS011;48586;50.122;18.972;2022-08-21T03:09:59;26.25;;;17.60;;
41039;SDS011;48586;50.122;18.972;2022-08-21T03:13:02;28.58;;;17.13;;
41039;SDS011;48586;50.122;18.972;2022-08-21T03:16:04;25.33;;;17.30;;
41039;SDS011;48586;50.122;18.972;2022-08-21T03:19:07;28.05;;;17.80;;
41039;SDS011;48586;50.122;18.972;2022-08-21T03:22:10;29.75;;;18.25;;
41039;SDS011;48586;50.122;18.972;2022-08-21T03:25:14;26.65;;;18.23;;
41039;SDS011;48586;50.122;18.972;2022-08-21T03:28:18;34.33;;;18.77;;
41039;SDS011;48586;50.122;18.972;2022-08-21T03:31:21;32.47;;;18.65;;
41039;SDS011;48586;50.122;18.972;2022-08-21T03:34:24;25.83;;;18.67;;
41039;SDS011;48586;50.122;18.972;2022-08-21T03:37:26;27.13;;;18.23;;
41039;SDS011;48586;50.122;18.972;2022-08-21T03:40:30;27.10;;;18.48;;
41039;SDS011;48586;50.122;18.972;2022-08-21T03:43:32;29.17;;;19.75;;
41039;SDS011;48586;50.122;18.972;2022-08-21T03:46:35;27.92;;;18.02;;
41039;SDS011;48586;50.122;18.972;2022-08-21T03:49:37;28.00;;;18.48;;
41039;SDS011;48586;50.122;18.972;2022-08-21T03:52:40;32.85;;;18.58;;
41039;SDS011;48586;50.122;18.972;2022-08-21T03:55:44;26.70;;;17.33;;
41039;SDS011;48586;50.122;18.972;2022-08-21T03:58:46;30.60;;;18.43;;
41039;SDS011;48586;50.122;18.972;2022-08-21T04:01:52;28.65;;;17.58;;
41039;SDS011;48586;50.122;18.972;2022-08-21T04:04:55;24.75;;;16.73;;
41039;SDS011;48586;50.122;18.972;2022-08-21T04:07:57;28.83;;;17.90;;
41039;SDS011;48586;50.122;18.972;2022-08-21T04:11:04;29.70;;;19.67;;
41039;SDS011;48586;50.122;18.972;2022-08-21T04:14:07;27.65;;;19.33;;
41039;SDS011;48586;50.122;18.972;2022-08-21T04:17:09;32.53;;;20.05;;
41039;SDS011;48586;50.122;18.972;2022-08-21T04:20:12;28.90;;;18.65;;
41039;SDS011;48586;50.122;18.972;2022-08-21T04:23:14;28.02;;;19.20;;
41039;SDS011;48586;50.122;18.972;2022-08-21T04:26:17;30.67;;;18.85;;
41039;SDS011;48586;50.122;18.972;2022-08-21T04:29:19;29.77;;;19.35;;
41039;SDS011;48586;50.122;18.972;2022-08-21T04:32:22;27.73;;;18.65;;
41039;SDS011;48586;50.122;18.972;2022-08-21T04:35:25;28.33;;;17.75;;
41039;SDS011;48586;50.122;18.972;2022-08-21T04:38:28;28.17;;;18.45;;
41039;SDS011;48586;50.122;18.972;2022-08-21T04:41:33;26.60;;;18.25;;
41039;SDS011;48586;50.122;18.972;2022-08-21T04:44:35;27.80;;;19.23;;
41039;SDS011;48586;50.122;18.972;2022-08-21T04:47:37;30.52;;;19.20;;
41039;SDS011;48586;50.122;18.972;2022-08-21T04:50:41;27.73;;;18.52;;
41039;SDS011;48586;50.122;18.972;2022-08-21T04:53:48;27.48;;;18.45;;
41039;SDS011;48586;50.122;18.972;2022-08-21T04:56:56;30.30;;;18.08;;
41039;SDS011;48586;50.122;18.972;2022-08-21T05:00:04;25.60;;;17.23;;
41039;SDS011;48586;50.122;18.972;2022-08-21T05:03:07;28.00;;;17.80;;
41039;SDS011;48586;50.122;18.972;2022-08-21T05:06:11;24.90;;;16.80;;
41039;SDS011;48586;50.122;18.972;2022-08-21T05:09:16;25.63;;;15.75;;
41039;SDS011;48586;50.122;18.972;2022-08-21T05:12:20;22.58;;;17.02;;
41039;SDS011;48586;50.122;18.972;2022-08-21T05:15:23;28.45;;;17.77;;
41039;SDS011;48586;50.122;18.972;2022-08-21T05:18:25;28.55;;;18.20;;
41039;SDS011;48586;50.122;18.972;2022-08-21T05:21:26;28.63;;;17.67;;
41039;SDS011;48586;50.122;18.972;2022-08-21T05:24:28;32.00;;;21.02;;
41039;SDS011;48586;50.122;18.972;2022-08-21T05:27:32;30.70;;;20.45;;
41039;SDS011;48586;50.122;18.972;2022-08-21T05:30:34;22.95;;;16.58;;
41039;SDS011;48586;50.122;18.972;2022-08-21T05:33:37;27.40;;;18.80;;
41039;SDS011;48586;50.122;18.972;2022-08-21T05:36:39;31.25;;;19.45;;
41039;SDS011;48586;50.122;18.972;2022-08-21T05:39:41;29.60;;;19.70;;
41039;SDS011;48586;50.122;18.972;2022-08-21T05:42:44;28.83;;;17.92;;
41039;SDS011;48586;50.122;18.972;2022-08-21T05:45:46;29.27;;;19.23;;
41039;SDS011;48586;50.122;18.972;2022-08-21T05:48:48;28.17;;;18.73;;
41039;SDS011;48586;50.122;18.972;2022-08-21T05:51:50;29.25;;;17.83;;
41039;SDS011;48586;50.122;18.972;2022-08-21T05:54:52;29.05;;;18.38;;
41039;SDS011;48586;50.122;18.972;2022-08-21T05:57:55;26.90;;;18.10;;
41039;SDS011;48586;50.122;18.972;2022-08-21T06:00:57;36.45;;;20.67;;
41039;SDS011;48586;50.122;18.972;2022-08-21T06:04:00;37.95;;;21.67;;
41039;SDS011;48586;50.122;18.972;2022-08-21T06:07:02;37.40;;;20.88;;
41039;SDS011;48586;50.122;18.972;2022-08-21T06:10:04;39.22;;;23.38;;
41039;SDS011;48586;50.122;18.972;2022-08-21T06:13:08;38.55;;;25.20;;
41039;SDS011;48586;50.122;18.972;2022-08-21T06:16:11;47.13;;;27.17;;
41039;SDS011;48586;50.122;18.972;2022-08-21T06:19:14;41.00;;;26.00;;
41039;SDS011;48586;50.122;18.972;2022-08-21T06:22:16;42.30;;;24.58;;
41039;SDS011;48586;50.122;18.972;2022-08-21T06:25:18;34.05;;;22.05;;
41039;SDS011;48586;50.122;18.972;2022-08-21T06:28:21;12.40;;;8.48;;
41039;SDS011;48586;50.122;18.972;2022-08-21T06:31:24;10.48;;;4.85;;
41039;SDS011;48586;50.122;18.972;2022-08-21T06:34:28;7.90;;;3.97;;
41039;SDS011;48586;50.122;18.972;2022-08-21T06:37:30;5.72;;;3.00;;
41039;SDS011;48586;50.122;18.972;2022-08-21T06:40:31;6.47;;;3.00;;
41039;SDS011;48586;50.122;18.972;2022-08-21T06:43:35;6.80;;;3.60;;
41039;SDS011;48586;50.122;18.972;2022-08-21T06:46:37;5.57;;;3.97;;
41039;SDS011;48586;50.122;18.972;2022-08-21T06:49:39;6.43;;;3.90;;
41039;SDS011;48586;50.122;18.972;2022-08-21T06:52:41;12.98;;;3.47;;
41039;SDS011;48586;50.122;18.972;2022-08-21T06:55:43;10.48;;;3.70;;
41039;SDS011;48586;50.122;18.972;2022-08-21T06:58:46;5.97;;;2.67;;
41039;SDS011;48586;50.122;18.972;2022-08-21T07:01:48;5.25;;;2.78;;
41039;SDS011;48586;50.122;18.972;2022-08-21T07:04:50;3.80;;;2.40;;
41039;SDS011;48586;50.122;18.972;2022-08-21T07:07:52;6.22;;;2.70;;
41039;SDS011;48586;50.122;18.972;2022-08-21T07:10:54;4.75;;;2.47;;
41039;SDS011;48586;50.122;18.972;2022-08-21T07:13:59;5.00;;;2.53;;
41039;SDS011;48586;50.122;18.972;2022-08-21T07:17:01;5.70;;;2.15;;
41039;SDS011;48586;50.122;18.972;2022-08-21T07:20:04;6.13;;;1.73;;
41039;SDS011;48586;50.122;18.972;2022-08-21T07:23:08;4.85;;;2.95;;
41039;SDS011;48586;50.122;18.972;2022-08-21T07:26:12;7.75;;;2.60;;
41039;SDS011;48586;50.122;18.972;2022-08-21T07:29:17;6.05;;;2.22;;
41039;SDS011;48586;50.122;18.972;2022-08-21T07:32:19;8.00;;;1.60;;
41039;SDS011;48586;50.122;18.972;2022-08-21T07:35:22;4.03;;;1.63;;
41039;SDS011;48586;50.122;18.972;2022-08-21T07:38:24;3.10;;;1.63;;
41039;SDS011;48586;50.122;18.972;2022-08-21T07:41:28;4.15;;;1.75;;
41039;SDS011;48586;50.122;18.972;2022-08-21T07:44:33;3.90;;;1.42;;
41039;SDS011;48586;50.122;18.972;2022-08-21T07:47:35;1.88;;;1.23;;
41039;SDS011;48586;50.122;18.972;2022-08-21T07:50:38;2.58;;;1.40;;
41039;SDS011;48586;50.122;18.972;2022-08-21T07:53:42;9.23;;;4.43;;
41039;SDS011;48586;50.122;18.972;2022-08-21T07:56:49;2.08;;;1.30;;
41039;SDS011;48586;50.122;18.972;2022-08-21T07:59:52;3.80;;;1.40;;
41039;SDS011;48586;50.122;18.972;2022-08-21T08:02:54;5.28;;;2.58;;
41039;SDS011;48586;50.122;18.972;2022-08-21T08:05:56;2.28;;;1.10;;
41039;SDS011;48586;50.122;18.972;2022-08-21T08:08:58;1.40;;;1.10;;
41039;SDS011;48586;50.122;18.972;2022-08-21T08:12:03;3.70;;;1.20;;
41039;SDS011;48586;50.122;18.972;2022-08-21T08:15:08;2.17;;;1.00;;
41039;SDS011;48586;50.122;18.972;2022-08-21T08:18:12;1.98;;;0.70;;
41039;SDS011;48586;50.122;18.972;2022-08-21T08:21:14;4.38;;;1.77;;
41039;SDS011;48586;50.122;18.972;2022-08-21T08:24:16;4.03;;;1.75;;
41039;SDS011;48586;50.122;18.972;2022-08-21T08:27:18;1.92;;;1.02;;
41039;SDS011;48586;50.122;18.972;2022-08-21T08:30:21;1.98;;;1.00;;
41039;SDS011;48586;50.122;18.972;2022-08-21T08:33:24;6.82;;;2.53;;
41039;SDS011;48586;50.122;18.972;2022-08-21T08:36:31;4.47;;;1.10;;
41039;SDS011;48586;50.122;18.972;2022-08-21T08:39:34;2.63;;;0.95;;
41039;SDS011;48586;50.122;18.972;2022-08-21T08:42:36;2.30;;;1.10;;
41039;SDS011;48586;50.122;18.972;2022-08-21T08:45:40;2.05;;;0.88;;
41039;SDS011;48586;50.122;18.972;2022-08-21T08:48:48;2.33;;;1.20;;
41039;SDS011;48586;50.122;18.972;2022-08-21T08:51:54;2.05;;;1.10;;
41039;SDS011;48586;50.122;18.972;2022-08-21T08:55:02;3.28;;;1.70;;
41039;SDS011;48586;50.122;18.972;2022-08-21T08:58:06;3.70;;;1.40;;
41039;SDS011;48586;50.122;18.972;2022-08-21T09:01:13;3.75;;;1.50;;
41039;SDS011;48586;50.122;18.972;2022-08-21T09:04:20;1.85;;;0.90;;
41039;SDS011;48586;50.122;18.972;2022-08-21T09:07:35;2.08;;;1.00;;
41039;SDS011;48586;50.122;18.972;2022-08-21T09:13:50;2.78;;;1.40;;
41039;SDS011;48586;50.122;18.972;2022-08-21T09:17:09;6.82;;;1.52;;
41039;SDS011;48586;50.122;18.972;2022-08-21T09:20:20;1.30;;;0.90;;
41039;SDS011;48586;50.122;18.972;2022-08-21T09:23:35;3.22;;;1.30;;
41039;SDS011;48586;50.122;18.972;2022-08-21T09:26:47;2.30;;;1.17;;
41039;SDS011;48586;50.122;18.972;2022-08-21T09:29:57;2.80;;;1.10;;
41039;SDS011;48586;50.122;18.972;2022-08-21T09:33:00;4.38;;;1.40;;
41039;SDS011;48586;50.122;18.972;2022-08-21T09:36:03;6.65;;;1.60;;
41039;SDS011;48586;50.122;18.972;2022-08-21T09:39:06;3.55;;;1.75;;
41039;SDS011;48586;50.122;18.972;2022-08-21T09:42:09;2.97;;;1.60;;
41039;SDS011;48586;50.122;18.972;2022-08-21T09:45:12;5.10;;;2.10;;
41039;SDS011;48586;50.122;18.972;2022-08-21T09:48:19;4.13;;;1.50;;
41039;SDS011;48586;50.122;18.972;2022-08-21T09:51:23;3.97;;;1.90;;
41039;SDS011;48586;50.122;18.972;2022-08-21T09:54:29;3.92;;;1.58;;
41039;SDS011;48586;50.122;18.972;2022-08-21T09:57:32;9.30;;;2.03;;
41039;SDS011;48586;50.122;18.972;2022-08-21T10:00:39;5.00;;;1.90;;
41039;SDS011;48586;50.122;18.972;2022-08-21T10:03:43;2.75;;;2.17;;
41039;SDS011;48586;50.122;18.972;2022-08-21T10:06:46;3.60;;;1.80;;
41039;SDS011;48586;50.122;18.972;2022-08-21T10:09:57;4.25;;;1.95;;
41039;SDS011;48586;50.122;18.972;2022-08-21T10:13:03;3.40;;;2.00;;
41039;SDS011;48586;50.122;18.972;2022-08-21T10:16:16;3.78;;;1.65;;
41039;SDS011;48586;50.122;18.972;2022-08-21T10:19:32;3.38;;;1.90;;
41039;SDS011;48586;50.122;18.972;2022-08-21T10:22:41;8.88;;;3.90;;
41039;SDS011;48586;50.122;18.972;2022-08-21T10:25:50;3.03;;;1.98;;
41039;SDS011;48586;50.122;18.972;2022-08-21T10:29:02;3.72;;;2.15;;
41039;SDS011;48586;50.122;18.972;2022-08-21T10:32:14;4.30;;;2.50;;
41039;SDS011;48586;50.122;18.972;2022-08-21T10:35:30;4.28;;;2.55;;
41039;SDS011;48586;50.122;18.972;2022-08-21T10:38:45;7.63;;;3.10;;
41039;SDS011;48586;50.122;18.972;2022-08-21T10:42:11;8.23;;;3.65;;
41039;SDS011;48586;50.122;18.972;2022-08-21T10:45:25;5.70;;;3.67;;
41039;SDS011;48586;50.122;18.972;2022-08-21T10:48:39;9.98;;;4.28;;
41039;SDS011;48586;50.122;18.972;2022-08-21T10:51:52;7.22;;;5.03;;
41039;SDS011;48586;50.122;18.972;2022-08-21T10:55:06;8.68;;;5.78;;
41039;SDS011;48586;50.122;18.972;2022-08-21T10:58:12;9.07;;;5.82;;
41039;SDS011;48586;50.122;18.972;2022-08-21T11:01:20;7.20;;;5.22;;
41039;SDS011;48586;50.122;18.972;2022-08-21T11:04:30;7.97;;;6.15;;
41039;SDS011;48586;50.122;18.972;2022-08-21T11:07:39;8.85;;;7.30;;
41039;SDS011;48586;50.122;18.972;2022-08-21T11:10:48;15.02;;;9.52;;
41039;SDS011;48586;50.122;18.972;2022-08-21T11:13:54;7.80;;;5.53;;
41039;SDS011;48586;50.122;18.972;2022-08-21T11:17:00;7.10;;;4.95;;
41039;SDS011;48586;50.122;18.972;2022-08-21T11:20:10;6.15;;;4.38;;
41039;SDS011;48586;50.122;18.972;2022-08-21T11:23:18;8.25;;;4.00;;
41039;SDS011;48586;50.122;18.972;2022-08-21T11:26:28;9.07;;;3.95;;
41039;SDS011;48586;50.122;18.972;2022-08-21T11:29:36;4.75;;;3.47;;
41039;SDS011;48586;50.122;18.972;2022-08-21T11:32:47;5.28;;;3.20;;
41039;SDS011;48586;50.122;18.972;2022-08-21T11:36:06;10.23;;;6.32;;
41039;SDS011;48586;50.122;18.972;2022-08-21T11:39:21;5.47;;;3.50;;
41039;SDS011;48586;50.122;18.972;2022-08-21T11:42:33;5.32;;;2.95;;
41039;SDS011;48586;50.122;18.972;2022-08-21T11:45:45;7.05;;;3.40;;
41039;SDS011;48586;50.122;18.972;2022-08-21T11:48:53;4.93;;;2.78;;
41039;SDS011;48586;50.122;18.972;2022-08-21T11:52:07;3.97;;;2.70;;
41039;SDS011;48586;50.122;18.972;2022-08-21T11:55:18;3.75;;;2.28;;
41039;SDS011;48586;50.122;18.972;2022-08-21T11:58:25;3.42;;;2.28;;
41039;SDS011;48586;50.122;18.972;2022-08-21T12:01:34;3.33;;;2.35;;
41039;SDS011;48586;50.122;18.972;2022-08-21T12:04:42;2.83;;;2.03;;
41039;SDS011;48586;50.122;18.972;2022-08-21T12:07:48;3.42;;;2.30;;
41039;SDS011;48586;50.122;18.972;2022-08-21T12:11:04;4.72;;;2.20;;
41039;SDS011;48586;50.122;18.972;2022-08-21T12:14:12;4.88;;;2.08;;
41039;SDS011;48586;50.122;18.972;2022-08-21T12:17:18;3.55;;;1.70;;
41039;SDS011;48586;50.122;18.972;2022-08-21T12:23:45;3.65;;;1.70;;
41039;SDS011;48586;50.122;18.972;2022-08-21T12:26:51;1.45;;;1.30;;
41039;SDS011;48586;50.122;18.972;2022-08-21T12:29:55;6.63;;;1.83;;
41039;SDS011;48586;50.122;18.972;2022-08-21T12:33:02;2.50;;;1.70;;
41039;SDS011;48586;50.122;18.972;2022-08-21T12:36:06;1.63;;;1.10;;
41039;SDS011;48586;50.122;18.972;2022-08-21T12:39:13;1.00;;;0.90;;
41039;SDS011;48586;50.122;18.972;2022-08-21T12:42:20;2.22;;;1.38;;
41039;SDS011;48586;50.122;18.972;2022-08-21T12:45:28;2.22;;;1.10;;
41039;SDS011;48586;50.122;18.972;2022-08-21T12:48:35;2.80;;;1.17;;
41039;SDS011;48586;50.122;18.972;2022-08-21T12:51:48;1.13;;;0.90;;
41039;SDS011;48586;50.122;18.972;2022-08-21T12:54:58;1.10;;;1.00;;
41039;SDS011;48586;50.122;18.972;2022-08-21T12:58:04;2.45;;;1.70;;
41039;SDS011;48586;50.122;18.972;2022-08-21T13:01:14;1.38;;;1.27;;
41039;SDS011;48586;50.122;18.972;2022-08-21T13:04:27;1.98;;;1.50;;
41039;SDS011;48586;50.122;18.972;2022-08-21T13:07:38;1.70;;;1.20;;
41039;SDS011;48586;50.122;18.972;2022-08-21T13:10:46;2.08;;;1.35;;
41039;SDS011;48586;50.122;18.972;2022-08-21T13:13:52;1.30;;;1.20;;
41039;SDS011;48586;50.122;18.972;2022-08-21T13:16:55;1.40;;;1.30;;
41039;SDS011;48586;50.122;18.972;2022-08-21T13:19:59;4.22;;;1.50;;
41039;SDS011;48586;50.122;18.972;2022-08-21T13:23:07;1.60;;;1.35;;
41039;SDS011;48586;50.122;18.972;2022-08-21T13:26:21;2.72;;;1.77;;
41039;SDS011;48586;50.122;18.972;2022-08-21T13:29:29;2.90;;;2.33;;
41039;SDS011;48586;50.122;18.972;2022-08-21T13:32:33;3.42;;;2.00;;
41039;SDS011;48586;50.122;18.972;2022-08-21T13:35:45;2.50;;;1.60;;
41039;SDS011;48586;50.122;18.972;2022-08-21T13:38:50;5.43;;;2.10;;
41039;SDS011;48586;50.122;18.972;2022-08-21T13:41:55;1.92;;;1.70;;
41039;SDS011;48586;50.122;18.972;2022-08-21T13:45:00;3.90;;;2.42;;
41039;SDS011;48586;50.122;18.972;2022-08-21T13:48:02;4.65;;;2.25;;
41039;SDS011;48586;50.122;18.972;2022-08-21T13:51:06;2.40;;;2.03;;
41039;SDS011;48586;50.122;18.972;2022-08-21T13:54:16;6.60;;;2.33;;
41039;SDS011;48586;50.122;18.972;2022-08-21T13:57:26;4.22;;;2.08;;
41039;SDS011;48586;50.122;18.972;2022-08-21T14:00:33;4.35;;;2.45;;
41039;SDS011;48586;50.122;18.972;2022-08-21T14:03:38;6.43;;;1.90;;
41039;SDS011;48586;50.122;18.972;2022-08-21T14:06:44;2.28;;;1.67;;
41039;SDS011;48586;50.122;18.972;2022-08-21T14:09:47;4.40;;;2.00;;
41039;SDS011;48586;50.122;18.972;2022-08-21T14:12:50;5.90;;;1.95;;
41039;SDS011;48586;50.122;18.972;2022-08-21T14:15:56;2.20;;;1.58;;
41039;SDS011;48586;50.122;18.972;2022-08-21T14:22:27;2.70;;;1.73;;
41039;SDS011;48586;50.122;18.972;2022-08-21T14:25:36;5.75;;;1.85;;
41039;SDS011;48586;50.122;18.972;2022-08-21T14:28:40;4.68;;;2.30;;
41039;SDS011;48586;50.122;18.972;2022-08-21T14:31:47;3.85;;;2.10;;
41039;SDS011;48586;50.122;18.972;2022-08-21T14:34:51;5.85;;;3.63;;
41039;SDS011;48586;50.122;18.972;2022-08-21T14:37:53;10.68;;;3.20;;
41039;SDS011;48586;50.122;18.972;2022-08-21T14:40:57;3.53;;;2.47;;
41039;SDS011;48586;50.122;18.972;2022-08-21T14:44:01;4.47;;;2.35;;
41039;SDS011;48586;50.122;18.972;2022-08-21T14:47:07;4.18;;;2.30;;
41039;SDS011;48586;50.122;18.972;2022-08-21T14:50:10;5.30;;;2.67;;
41039;SDS011;48586;50.122;18.972;2022-08-21T14:53:13;3.95;;;2.63;;
41039;SDS011;48586;50.122;18.972;2022-08-21T14:56:16;5.15;;;3.10;;
41039;SDS011;48586;50.122;18.972;2022-08-21T14:59:19;3.88;;;3.15;;
41039;SDS011;48586;50.122;18.972;2022-08-21T15:02:23;5.28;;;3.08;;
41039;SDS011;48586;50.122;18.972;2022-08-21T15:05:25;4.40;;;3.28;;
41039;SDS011;48586;50.122;18.972;2022-08-21T15:08:27;3.20;;;2.90;;
41039;SDS011;48586;50.122;18.972;2022-08-21T15:11:30;11.63;;;7.13;;
41039;SDS011;48586;50.122;18.972;2022-08-21T15:17:41;4.50;;;3.30;;
41039;SDS011;48586;50.122;18.972;2022-08-21T15:20:43;4.10;;;3.40;;
41039;SDS011;48586;50.122;18.972;2022-08-21T15:23:45;6.32;;;3.40;;
41039;SDS011;48586;50.122;18.972;2022-08-21T15:26:48;5.93;;;3.70;;
41039;SDS011;48586;50.122;18.972;2022-08-21T15:29:50;4.90;;;3.42;;
41039;SDS011;48586;50.122;18.972;2022-08-21T15:32:55;5.78;;;4.00;;
41039;SDS011;48586;50.122;18.972;2022-08-21T15:35:58;5.43;;;3.75;;
41039;SDS011;48586;50.122;18.972;2022-08-21T15:39:01;5.20;;;3.78;;
41039;SDS011;48586;50.122;18.972;2022-08-21T15:42:04;4.85;;;3.65;;
41039;SDS011;48586;50.122;18.972;2022-08-21T15:45:07;6.72;;;3.75;;
41039;SDS011;48586;50.122;18.972;2022-08-21T15:48:15;7.60;;;4.20;;
41039;SDS011;48586;50.122;18.972;2022-08-21T15:51:18;7.55;;;3.65;;
41039;SDS011;48586;50.122;18.972;2022-08-21T15:54:20;4.75;;;3.63;;
41039;SDS011;48586;50.122;18.972;2022-08-21T15:57:23;8.20;;;3.80;;
41039;SDS011;48586;50.122;18.972;2022-08-21T16:00:27;8.30;;;4.43;;
41039;SDS011;48586;50.122;18.972;2022-08-21T16:03:31;7.75;;;4.63;;
41039;SDS011;48586;50.122;18.972;2022-08-21T16:09:37;6.85;;;4.50;;
41039;SDS011;48586;50.122;18.972;2022-08-21T16:12:41;6.13;;;4.32;;
41039;SDS011;48586;50.122;18.972;2022-08-21T16:15:46;9.30;;;4.43;;
41039;SDS011;48586;50.122;18.972;2022-08-21T16:18:50;18.85;;;9.40;;
41039;SDS011;48586;50.122;18.972;2022-08-21T16:21:53;11.13;;;4.43;;
41039;SDS011;48586;50.122;18.972;2022-08-21T16:24:55;8.50;;;5.43;;
41039;SDS011;48586;50.122;18.972;2022-08-21T16:27:58;7.82;;;5.53;;
41039;SDS011;48586;50.122;18.972;2022-08-21T16:31:02;9.18;;;5.88;;
41039;SDS011;48586;50.122;18.972;2022-08-21T16:34:15;10.25;;;6.50;;
41039;SDS011;48586;50.122;18.972;2022-08-21T16:37:19;10.65;;;5.97;;
41039;SDS011;48586;50.122;18.972;2022-08-21T16:40:22;13.13;;;6.18;;
41039;SDS011;48586;50.122;18.972;2022-08-21T16:43:27;11.10;;;5.87;;
41039;SDS011;48586;50.122;18.972;2022-08-21T16:46:32;7.78;;;4.93;;
41039;SDS011;48586;50.122;18.972;2022-08-21T16:49:37;8.88;;;5.18;;
41039;SDS011;48586;50.122;18.972;2022-08-21T16:52:39;10.25;;;5.00;;
41039;SDS011;48586;50.122;18.972;2022-08-21T16:55:41;9.55;;;5.32;;
41039;SDS011;48586;50.122;18.972;2022-08-21T16:58:45;8.32;;;5.00;;
41039;SDS011;48586;50.122;18.972;2022-08-21T17:01:49;9.70;;;4.47;;
41039;SDS011;48586;50.122;18.972;2022-08-21T17:04:54;13.18;;;6.30;;
41039;SDS011;48586;50.122;18.972;2022-08-21T17:07:56;9.80;;;6.97;;
41039;SDS011;48586;50.122;18.972;2022-08-21T17:10:59;6.75;;;4.50;;
41039;SDS011;48586;50.122;18.972;2022-08-21T17:14:03;6.88;;;4.32;;
41039;SDS011;48586;50.122;18.972;2022-08-21T17:17:08;4.22;;;3.17;;
41039;SDS011;48586;50.122;18.972;2022-08-21T17:20:13;4.60;;;3.58;;
41039;SDS011;48586;50.122;18.972;2022-08-21T17:23:16;4.85;;;3.38;;
41039;SDS011;48586;50.122;18.972;2022-08-21T17:26:20;4.68;;;3.40;;
41039;SDS011;48586;50.122;18.972;2022-08-21T17:29:24;6.50;;;3.25;;
41039;SDS011;48586;50.122;18.972;2022-08-21T17:32:31;3.88;;;2.70;;
41039;SDS011;48586;50.122;18.972;2022-08-21T17:35:35;2.85;;;2.45;;
41039;SDS011;48586;50.122;18.972;2022-08-21T17:38:38;4.43;;;2.80;;
41039;SDS011;48586;50.122;18.972;2022-08-21T17:41:41;3.58;;;2.53;;
41039;SDS011;48586;50.122;18.972;2022-08-21T17:44:46;5.85;;;3.13;;
41039;SDS011;48586;50.122;18.972;2022-08-21T17:47:50;4.00;;;3.22;;
41039;SDS011;48586;50.122;18.972;2022-08-21T17:50:58;4.10;;;2.55;;
41039;SDS011;48586;50.122;18.972;2022-08-21T17:54:04;3.15;;;2.60;;
41039;SDS011;48586;50.122;18.972;2022-08-21T17:57:06;4.18;;;3.00;;
41039;SDS011;48586;50.122;18.972;2022-08-21T18:00:14;4.70;;;3.50;;
41039;SDS011;48586;50.122;18.972;2022-08-21T18:03:21;4.65;;;2.90;;
41039;SDS011;48586;50.122;18.972;2022-08-21T18:06:25;5.18;;;3.35;;
41039;SDS011;48586;50.122;18.972;2022-08-21T18:09:28;6.80;;;4.25;;
41039;SDS011;48586;50.122;18.972;2022-08-21T18:12:32;4.03;;;2.90;;
41039;SDS011;48586;50.122;18.972;2022-08-21T18:15:35;2.50;;;2.30;;
41039;SDS011;48586;50.122;18.972;2022-08-21T18:18:39;2.97;;;2.42;;
41039;SDS011;48586;50.122;18.972;2022-08-21T18:24:47;4.80;;;3.35;;